sensor_id;sensor_type;location;lat;lon;timestamp;pressure;altitude;pressure_sealevel;temperature;humidity
73338;BME280;61575;49.908;35.556;2022-08-21T00:00:22;99125.44;;;20.26;55.04
73338;BME280;61575;49.908;35.556;2022-08-21T00:03:25;99116.19;;;20.15;55.55
73338;BME280;61575;49.908;35.556;2022-08-21T00:06:27;99119.50;;;20.17;55.20
73338;BME280;61575;49.908;35.556;2022-08-21T00:09:29;99118.91;;;20.15;55.68
73338;BME280;61575;49.908;35.556;2022-08-21T00:12:31;99120.09;;;20.08;55.76
73338;BME280;61575;49.908;35.556;2022-08-21T00:15:34;99117.47;;;20.01;56.37
73338;BME280;61575;49.908;35.556;2022-08-21T00:18:36;99108.94;;;19.97;56.09
73338;BME280;61575;49.908;35.556;2022-08-21T00:21:38;99108.13;;;19.97;55.98
73338;BME280;61575;49.908;35.556;2022-08-21T00:24:45;99108.34;;;19.95;56.02
73338;BME280;61575;49.908;35.556;2022-08-21T00:27:47;99104.81;;;19.95;55.86
73338;BME280;61575;49.908;35.556;2022-08-21T00:30:49;99104.66;;;19.78;56.86
73338;BME280;61575;49.908;35.556;2022-08-21T00:33:52;99108.66;;;19.76;57.34
73338;BME280;61575;49.908;35.556;2022-08-21T00:37:01;99107.09;;;19.68;57.38
73338;BME280;61575;49.908;35.556;2022-08-21T00:40:04;99102.34;;;19.63;57.16
73338;BME280;61575;49.908;35.556;2022-08-21T00:43:08;99099.97;;;19.55;57.54
73338;BME280;61575;49.908;35.556;2022-08-21T00:46:10;99091.09;;;19.60;57.39
73338;BME280;61575;49.908;35.556;2022-08-21T00:49:12;99086.97;;;19.57;57.44
73338;BME280;61575;49.908;35.556;2022-08-21T00:52:19;99092.09;;;19.47;57.28
73338;BME280;61575;49.908;35.556;2022-08-21T00:55:22;99085.91;;;19.40;57.49
73338;BME280;61575;49.908;35.556;2022-08-21T00:58:25;99098.09;;;19.37;57.23
73338;BME280;61575;49.908;35.556;2022-08-21T01:01:28;99100.22;;;19.35;57.24
73338;BME280;61575;49.908;35.556;2022-08-21T01:04:30;99093.72;;;19.36;57.37
73338;BME280;61575;49.908;35.556;2022-08-21T01:07:31;99097.34;;;19.30;57.71
73338;BME280;61575;49.908;35.556;2022-08-21T01:10:34;99088.34;;;19.30;57.16
73338;BME280;61575;49.908;35.556;2022-08-21T01:13:38;99077.34;;;19.25;57.39
73338;BME280;61575;49.908;35.556;2022-08-21T01:16:46;99080.16;;;19.18;57.48
73338;BME280;61575;49.908;35.556;2022-08-21T01:19:49;99074.94;;;19.17;57.26
73338;BME280;61575;49.908;35.556;2022-08-21T01:22:51;99078.34;;;19.12;57.47
73338;BME280;61575;49.908;35.556;2022-08-21T01:25:53;99074.56;;;19.13;57.55
73338;BME280;61575;49.908;35.556;2022-08-21T01:32:16;99067.56;;;19.05;57.64
73338;BME280;61575;49.908;35.556;2022-08-21T01:35:19;99066.59;;;19.00;57.78
73338;BME280;61575;49.908;35.556;2022-08-21T01:38:21;99071.06;;;18.94;57.59
73338;BME280;61575;49.908;35.556;2022-08-21T01:41:22;99064.66;;;18.89;57.50
73338;BME280;61575;49.908;35.556;2022-08-21T01:44:24;99068.66;;;18.86;57.97
73338;BME280;61575;49.908;35.556;2022-08-21T01:47:26;99062.63;;;18.84;57.89
73338;BME280;61575;49.908;35.556;2022-08-21T01:50:28;99064.50;;;18.84;58.04
73338;BME280;61575;49.908;35.556;2022-08-21T01:53:30;99059.00;;;18.72;58.19
73338;BME280;61575;49.908;35.556;2022-08-21T01:56:35;99060.06;;;18.71;58.27
73338;BME280;61575;49.908;35.556;2022-08-21T01:59:37;99060.88;;;18.71;57.88
73338;BME280;61575;49.908;35.556;2022-08-21T02:02:39;99063.44;;;18.66;58.18
73338;BME280;61575;49.908;35.556;2022-08-21T02:05:42;99064.72;;;18.64;58.15
73338;BME280;61575;49.908;35.556;2022-08-21T02:08:44;99069.72;;;18.67;57.85
73338;BME280;61575;49.908;35.556;2022-08-21T02:11:47;99069.94;;;18.65;57.80
73338;BME280;61575;49.908;35.556;2022-08-21T02:14:48;99059.06;;;18.65;57.73
73338;BME280;61575;49.908;35.556;2022-08-21T02:17:52;99055.75;;;18.63;57.74
73338;BME280;61575;49.908;35.556;2022-08-21T02:20:54;99062.88;;;18.58;57.84
73338;BME280;61575;49.908;35.556;2022-08-21T02:23:57;99064.38;;;18.54;57.91
73338;BME280;61575;49.908;35.556;2022-08-21T02:26:59;99060.41;;;18.56;57.88
73338;BME280;61575;49.908;35.556;2022-08-21T02:30:00;99065.06;;;18.49;58.07
73338;BME280;61575;49.908;35.556;2022-08-21T02:33:02;99063.03;;;18.44;58.12
73338;BME280;61575;49.908;35.556;2022-08-21T02:36:04;99046.97;;;18.43;58.28
73338;BME280;61575;49.908;35.556;2022-08-21T02:39:06;99055.56;;;18.40;58.15
73338;BME280;61575;49.908;35.556;2022-08-21T02:42:08;99054.50;;;18.41;57.86
73338;BME280;61575;49.908;35.556;2022-08-21T02:45:10;99048.75;;;18.31;58.11
73338;BME280;61575;49.908;35.556;2022-08-21T02:48:14;99054.25;;;18.24;58.51
73338;BME280;61575;49.908;35.556;2022-08-21T02:51:17;99055.25;;;18.30;58.12
73338;BME280;61575;49.908;35.556;2022-08-21T02:54:20;99058.19;;;18.28;58.43
73338;BME280;61575;49.908;35.556;2022-08-21T02:57:22;99056.34;;;18.22;58.31
73338;BME280;61575;49.908;35.556;2022-08-21T03:00:25;99064.38;;;18.35;58.01
73338;BME280;61575;49.908;35.556;2022-08-21T03:03:27;99064.97;;;18.37;58.15
73338;BME280;61575;49.908;35.556;2022-08-21T03:06:30;99068.28;;;18.39;58.02
73338;BME280;61575;49.908;35.556;2022-08-21T03:09:32;99065.13;;;18.42;58.01
73338;BME280;61575;49.908;35.556;2022-08-21T03:12:34;99069.44;;;18.50;57.65
73338;BME280;61575;49.908;35.556;2022-08-21T03:15:39;99070.28;;;18.51;58.00
73338;BME280;61575;49.908;35.556;2022-08-21T03:18:41;99067.94;;;18.54;57.36
73338;BME280;61575;49.908;35.556;2022-08-21T03:21:43;99063.72;;;18.58;57.53
73338;BME280;61575;49.908;35.556;2022-08-21T03:24:45;99069.75;;;18.60;57.46
73338;BME280;61575;49.908;35.556;2022-08-21T03:27:47;99073.69;;;18.64;57.11
73338;BME280;61575;49.908;35.556;2022-08-21T03:30:57;99077.47;;;18.63;57.15
73338;BME280;61575;49.908;35.556;2022-08-21T03:33:59;99073.47;;;18.66;57.12
73338;BME280;61575;49.908;35.556;2022-08-21T03:37:01;99071.50;;;18.73;57.15
73338;BME280;61575;49.908;35.556;2022-08-21T03:40:04;99075.44;;;18.77;56.86
73338;BME280;61575;49.908;35.556;2022-08-21T03:43:06;99073.19;;;18.74;56.40
73338;BME280;61575;49.908;35.556;2022-08-21T03:46:10;99071.22;;;18.81;56.60
73338;BME280;61575;49.908;35.556;2022-08-21T03:49:12;99076.19;;;18.84;56.26
73338;BME280;61575;49.908;35.556;2022-08-21T03:52:14;99080.34;;;18.87;56.20
73338;BME280;61575;49.908;35.556;2022-08-21T03:55:17;99077.25;;;18.83;55.90
73338;BME280;61575;49.908;35.556;2022-08-21T03:58:20;99074.69;;;18.88;55.78
73338;BME280;61575;49.908;35.556;2022-08-21T04:01:22;99073.78;;;18.94;55.63
73338;BME280;61575;49.908;35.556;2022-08-21T04:04:25;99073.09;;;18.99;55.54
73338;BME280;61575;49.908;35.556;2022-08-21T04:07:27;99080.31;;;19.05;55.17
73338;BME280;61575;49.908;35.556;2022-08-21T04:10:30;99081.22;;;19.17;55.22
73338;BME280;61575;49.908;35.556;2022-08-21T04:13:32;99079.94;;;19.20;54.43
73338;BME280;61575;49.908;35.556;2022-08-21T04:16:34;99084.63;;;19.42;54.75
73338;BME280;61575;49.908;35.556;2022-08-21T04:19:36;99086.88;;;19.64;54.09
73338;BME280;61575;49.908;35.556;2022-08-21T04:22:38;99084.31;;;19.81;53.30
73338;BME280;61575;49.908;35.556;2022-08-21T04:25:40;99089.06;;;19.97;53.04
73338;BME280;61575;49.908;35.556;2022-08-21T04:28:43;99086.25;;;20.15;52.75
73338;BME280;61575;49.908;35.556;2022-08-21T04:31:45;99086.50;;;20.37;51.66
73338;BME280;61575;49.908;35.556;2022-08-21T04:34:47;99091.75;;;20.50;51.64
73338;BME280;61575;49.908;35.556;2022-08-21T04:37:49;99084.63;;;20.61;51.44
73338;BME280;61575;49.908;35.556;2022-08-21T04:40:51;99093.22;;;20.81;51.23
73338;BME280;61575;49.908;35.556;2022-08-21T04:43:53;99090.34;;;20.99;50.59
73338;BME280;61575;49.908;35.556;2022-08-21T04:46:56;99097.00;;;20.92;49.91
73338;BME280;61575;49.908;35.556;2022-08-21T04:49:59;99101.59;;;21.03;50.47
73338;BME280;61575;49.908;35.556;2022-08-21T04:53:01;99088.03;;;21.20;50.28
73338;BME280;61575;49.908;35.556;2022-08-21T04:56:07;99099.75;;;21.20;49.58
73338;BME280;61575;49.908;35.556;2022-08-21T04:59:11;99094.94;;;21.22;49.38
73338;BME280;61575;49.908;35.556;2022-08-21T05:02:14;99097.22;;;21.42;49.42
73338;BME280;61575;49.908;35.556;2022-08-21T05:05:16;99099.16;;;21.58;49.00
73338;BME280;61575;49.908;35.556;2022-08-21T05:08:19;99106.50;;;21.86;49.07
73338;BME280;61575;49.908;35.556;2022-08-21T05:11:22;99104.69;;;21.92;48.48
73338;BME280;61575;49.908;35.556;2022-08-21T05:14:26;99101.66;;;22.22;48.28
73338;BME280;61575;49.908;35.556;2022-08-21T05:17:28;99091.72;;;22.33;47.29
73338;BME280;61575;49.908;35.556;2022-08-21T05:20:30;99089.66;;;22.40;47.57
73338;BME280;61575;49.908;35.556;2022-08-21T05:23:32;99092.88;;;22.53;47.12
73338;BME280;61575;49.908;35.556;2022-08-21T05:26:34;99093.84;;;22.64;46.37
73338;BME280;61575;49.908;35.556;2022-08-21T05:29:46;99100.94;;;22.82;46.86
73338;BME280;61575;49.908;35.556;2022-08-21T05:32:55;99113.81;;;23.03;46.78
73338;BME280;61575;49.908;35.556;2022-08-21T05:35:58;99106.75;;;23.07;46.41
73338;BME280;61575;49.908;35.556;2022-08-21T05:38:59;99099.06;;;23.26;46.42
73338;BME280;61575;49.908;35.556;2022-08-21T05:42:01;99107.44;;;23.41;46.35
73338;BME280;61575;49.908;35.556;2022-08-21T05:45:03;99100.25;;;23.57;45.78
73338;BME280;61575;49.908;35.556;2022-08-21T05:48:06;99103.31;;;23.61;45.36
73338;BME280;61575;49.908;35.556;2022-08-21T05:51:10;99097.16;;;23.75;45.10
73338;BME280;61575;49.908;35.556;2022-08-21T05:54:12;99105.31;;;23.97;45.04
73338;BME280;61575;49.908;35.556;2022-08-21T05:57:14;99109.94;;;23.97;45.19
73338;BME280;61575;49.908;35.556;2022-08-21T06:00:16;99102.69;;;24.12;44.36
73338;BME280;61575;49.908;35.556;2022-08-21T06:03:23;99111.22;;;24.16;44.26
73338;BME280;61575;49.908;35.556;2022-08-21T06:06:25;99108.91;;;24.30;44.14
73338;BME280;61575;49.908;35.556;2022-08-21T06:09:27;99123.81;;;24.44;44.11
73338;BME280;61575;49.908;35.556;2022-08-21T06:12:28;99118.09;;;24.50;43.95
73338;BME280;61575;49.908;35.556;2022-08-21T06:15:30;99103.59;;;24.55;44.06
73338;BME280;61575;49.908;35.556;2022-08-21T06:18:32;99104.50;;;24.66;43.83
73338;BME280;61575;49.908;35.556;2022-08-21T06:21:34;99101.16;;;25.01;43.39
73338;BME280;61575;49.908;35.556;2022-08-21T06:24:36;99105.53;;;25.02;42.54
73338;BME280;61575;49.908;35.556;2022-08-21T06:27:38;99108.34;;;25.17;43.02
73338;BME280;61575;49.908;35.556;2022-08-21T06:30:40;99107.31;;;25.28;42.37
73338;BME280;61575;49.908;35.556;2022-08-21T06:33:42;99115.03;;;25.41;41.86
73338;BME280;61575;49.908;35.556;2022-08-21T06:36:44;99099.94;;;25.39;42.10
73338;BME280;61575;49.908;35.556;2022-08-21T06:39:45;99104.28;;;25.25;41.93
73338;BME280;61575;49.908;35.556;2022-08-21T06:42:49;99105.47;;;25.59;41.69
73338;BME280;61575;49.908;35.556;2022-08-21T06:45:51;99103.88;;;25.68;41.53
73338;BME280;61575;49.908;35.556;2022-08-21T06:48:53;99107.94;;;25.56;41.92
73338;BME280;61575;49.908;35.556;2022-08-21T06:51:55;99106.66;;;25.78;41.69
73338;BME280;61575;49.908;35.556;2022-08-21T06:54:57;99099.50;;;26.03;41.14
73338;BME280;61575;49.908;35.556;2022-08-21T06:57:59;99097.56;;;26.19;41.35
73338;BME280;61575;49.908;35.556;2022-08-21T07:01:01;99105.28;;;26.47;40.19
73338;BME280;61575;49.908;35.556;2022-08-21T07:04:04;99107.47;;;26.60;40.32
73338;BME280;61575;49.908;35.556;2022-08-21T07:07:06;99095.31;;;26.87;39.85
73338;BME280;61575;49.908;35.556;2022-08-21T07:10:07;99104.66;;;27.01;39.97
73338;BME280;61575;49.908;35.556;2022-08-21T07:13:22;99099.16;;;27.01;39.02
73338;BME280;61575;49.908;35.556;2022-08-21T07:16:24;99095.25;;;27.12;40.35
73338;BME280;61575;49.908;35.556;2022-08-21T07:19:26;99092.88;;;27.50;39.61
73338;BME280;61575;49.908;35.556;2022-08-21T07:22:28;99090.28;;;27.73;39.10
73338;BME280;61575;49.908;35.556;2022-08-21T07:25:30;99087.63;;;27.97;38.33
73338;BME280;61575;49.908;35.556;2022-08-21T07:28:33;99086.09;;;28.15;38.11
73338;BME280;61575;49.908;35.556;2022-08-21T07:31:36;99086.75;;;28.02;37.69
73338;BME280;61575;49.908;35.556;2022-08-21T07:34:38;99089.16;;;28.14;38.31
73338;BME280;61575;49.908;35.556;2022-08-21T07:37:40;99094.59;;;28.24;37.47
73338;BME280;61575;49.908;35.556;2022-08-21T07:40:42;99092.63;;;28.29;37.24
73338;BME280;61575;49.908;35.556;2022-08-21T07:43:44;99092.69;;;28.53;37.41
73338;BME280;61575;49.908;35.556;2022-08-21T07:46:53;99085.25;;;28.78;36.58
73338;BME280;61575;49.908;35.556;2022-08-21T07:49:55;99081.63;;;28.82;36.86
73338;BME280;61575;49.908;35.556;2022-08-21T07:52:57;99090.44;;;28.55;36.72
73338;BME280;61575;49.908;35.556;2022-08-21T07:55:59;99079.19;;;28.52;36.73
73338;BME280;61575;49.908;35.556;2022-08-21T07:59:01;99079.94;;;28.86;36.78
73338;BME280;61575;49.908;35.556;2022-08-21T08:02:09;99081.09;;;28.80;36.72
73338;BME280;61575;49.908;35.556;2022-08-21T08:05:11;99083.66;;;28.72;36.49
73338;BME280;61575;49.908;35.556;2022-08-21T08:08:13;99095.97;;;28.21;37.19
73338;BME280;61575;49.908;35.556;2022-08-21T08:11:15;99080.44;;;27.57;37.26
73338;BME280;61575;49.908;35.556;2022-08-21T08:14:17;99073.50;;;27.70;37.97
73338;BME280;61575;49.908;35.556;2022-08-21T08:17:19;99078.13;;;28.14;37.56
73338;BME280;61575;49.908;35.556;2022-08-21T08:20:24;99086.81;;;28.60;36.85
73338;BME280;61575;49.908;35.556;2022-08-21T08:23:31;99078.03;;;28.82;35.74
73338;BME280;61575;49.908;35.556;2022-08-21T08:26:34;99082.75;;;29.05;35.89
73338;BME280;61575;49.908;35.556;2022-08-21T08:29:36;99071.13;;;28.84;35.21
73338;BME280;61575;49.908;35.556;2022-08-21T08:32:38;99071.78;;;29.00;34.83
73338;BME280;61575;49.908;35.556;2022-08-21T08:35:41;99072.06;;;29.22;35.80
73338;BME280;61575;49.908;35.556;2022-08-21T08:38:44;99076.97;;;29.25;35.45
73338;BME280;61575;49.908;35.556;2022-08-21T08:41:46;99081.00;;;29.14;35.71
73338;BME280;61575;49.908;35.556;2022-08-21T08:45:06;99075.03;;;29.26;35.67
73338;BME280;61575;49.908;35.556;2022-08-21T08:48:10;99079.53;;;29.41;34.84
73338;BME280;61575;49.908;35.556;2022-08-21T08:51:17;99073.50;;;29.39;34.67
73338;BME280;61575;49.908;35.556;2022-08-21T08:54:42;99079.28;;;29.61;35.10
73338;BME280;61575;49.908;35.556;2022-08-21T08:57:44;99071.06;;;29.93;33.50
73338;BME280;61575;49.908;35.556;2022-08-21T09:00:51;99061.66;;;29.76;33.14
73338;BME280;61575;49.908;35.556;2022-08-21T09:03:54;99074.34;;;29.58;33.71
73338;BME280;61575;49.908;35.556;2022-08-21T09:06:59;99071.31;;;29.36;34.06
73338;BME280;61575;49.908;35.556;2022-08-21T09:10:18;99070.69;;;29.44;33.99
73338;BME280;61575;49.908;35.556;2022-08-21T09:13:22;99083.41;;;29.21;33.64
73338;BME280;61575;49.908;35.556;2022-08-21T09:19:46;99073.09;;;28.79;34.34
73338;BME280;61575;49.908;35.556;2022-08-21T09:22:59;99081.31;;;28.60;34.39
73338;BME280;61575;49.908;35.556;2022-08-21T09:26:11;99084.72;;;28.76;35.37
73338;BME280;61575;49.908;35.556;2022-08-21T09:29:14;99077.50;;;28.80;34.37
73338;BME280;61575;49.908;35.556;2022-08-21T09:32:19;99075.13;;;28.97;35.22
73338;BME280;61575;49.908;35.556;2022-08-21T09:35:22;99085.41;;;28.91;35.03
73338;BME280;61575;49.908;35.556;2022-08-21T09:38:32;99083.38;;;28.73;34.79
73338;BME280;61575;49.908;35.556;2022-08-21T09:41:36;99081.53;;;28.63;34.35
73338;BME280;61575;49.908;35.556;2022-08-21T09:44:40;99081.59;;;28.58;34.62
73338;BME280;61575;49.908;35.556;2022-08-21T09:47:45;99089.34;;;28.56;34.89
73338;BME280;61575;49.908;35.556;2022-08-21T09:50:48;99091.94;;;28.72;34.66
73338;BME280;61575;49.908;35.556;2022-08-21T09:53:52;99097.91;;;28.84;35.07
73338;BME280;61575;49.908;35.556;2022-08-21T09:56:59;99085.06;;;28.98;34.40
73338;BME280;61575;49.908;35.556;2022-08-21T10:00:28;99091.75;;;29.16;34.22
73338;BME280;61575;49.908;35.556;2022-08-21T10:03:33;99090.66;;;29.36;33.83
73338;BME280;61575;49.908;35.556;2022-08-21T10:06:35;99097.88;;;29.31;33.75
73338;BME280;61575;49.908;35.556;2022-08-21T10:09:37;99097.06;;;29.31;33.33
73338;BME280;61575;49.908;35.556;2022-08-21T10:21:58;99112.47;;;28.60;33.75
73338;BME280;61575;49.908;35.556;2022-08-21T10:25:05;99101.78;;;28.20;34.27
73338;BME280;61575;49.908;35.556;2022-08-21T10:34:31;99115.84;;;27.79;34.85
73338;BME280;61575;49.908;35.556;2022-08-21T10:41:00;99108.50;;;27.59;34.87
73338;BME280;61575;49.908;35.556;2022-08-21T10:47:30;99096.66;;;27.64;35.26
73338;BME280;61575;49.908;35.556;2022-08-21T10:50:44;99097.78;;;27.58;35.69
73338;BME280;61575;49.908;35.556;2022-08-21T10:57:09;99098.53;;;27.73;35.35
73338;BME280;61575;49.908;35.556;2022-08-21T11:00:19;99089.44;;;27.73;34.50
73338;BME280;61575;49.908;35.556;2022-08-21T11:04:01;99091.88;;;27.80;35.20
73338;BME280;61575;49.908;35.556;2022-08-21T11:06:57;99096.34;;;28.10;34.58
73338;BME280;61575;49.908;35.556;2022-08-21T11:10:09;99096.31;;;28.15;33.62
73338;BME280;61575;49.908;35.556;2022-08-21T11:13:55;99095.44;;;28.24;33.65
73338;BME280;61575;49.908;35.556;2022-08-21T11:16:41;99089.59;;;28.60;33.52
73338;BME280;61575;49.908;35.556;2022-08-21T11:23:23;99087.81;;;28.98;32.67
73338;BME280;61575;49.908;35.556;2022-08-21T11:26:30;99093.09;;;29.18;31.81
73338;BME280;61575;49.908;35.556;2022-08-21T11:29:35;99089.28;;;29.14;31.39
73338;BME280;61575;49.908;35.556;2022-08-21T11:35:48;99088.41;;;28.95;32.10
73338;BME280;61575;49.908;35.556;2022-08-21T11:42:38;99072.53;;;29.06;31.60
73338;BME280;61575;49.908;35.556;2022-08-21T11:46:03;99075.88;;;29.26;31.40
73338;BME280;61575;49.908;35.556;2022-08-21T11:52:35;99072.91;;;29.42;31.97
73338;BME280;61575;49.908;35.556;2022-08-21T11:55:43;99079.44;;;29.51;32.22
73338;BME280;61575;49.908;35.556;2022-08-21T11:58:56;99071.97;;;29.70;31.77
73338;BME280;61575;49.908;35.556;2022-08-21T12:02:00;99064.81;;;29.69;31.15
73338;BME280;61575;49.908;35.556;2022-08-21T12:05:04;99078.31;;;29.71;31.34
73338;BME280;61575;49.908;35.556;2022-08-21T12:08:15;99074.72;;;29.51;31.36
73338;BME280;61575;49.908;35.556;2022-08-21T12:11:30;99073.38;;;29.49;32.13
73338;BME280;61575;49.908;35.556;2022-08-21T12:14:43;99057.19;;;29.61;31.08
73338;BME280;61575;49.908;35.556;2022-08-21T12:18:03;99065.09;;;29.49;31.76
73338;BME280;61575;49.908;35.556;2022-08-21T12:24:17;99057.03;;;29.52;31.58
73338;BME280;61575;49.908;35.556;2022-08-21T12:27:26;99050.53;;;29.62;31.51
73338;BME280;61575;49.908;35.556;2022-08-21T12:30:35;99049.50;;;29.58;31.85
73338;BME280;61575;49.908;35.556;2022-08-21T12:33:38;99050.47;;;29.67;31.31
73338;BME280;61575;49.908;35.556;2022-08-21T12:36:45;99048.59;;;29.81;31.80
73338;BME280;61575;49.908;35.556;2022-08-21T12:39:51;99052.59;;;29.89;31.23
73338;BME280;61575;49.908;35.556;2022-08-21T12:43:00;99054.25;;;29.90;31.00
73338;BME280;61575;49.908;35.556;2022-08-21T12:46:04;99057.09;;;30.04;31.30
73338;BME280;61575;49.908;35.556;2022-08-21T12:49:13;99052.94;;;30.20;31.64
73338;BME280;61575;49.908;35.556;2022-08-21T12:52:23;99052.47;;;30.32;31.44
73338;BME280;61575;49.908;35.556;2022-08-21T12:55:29;99047.56;;;30.42;31.27
73338;BME280;61575;49.908;35.556;2022-08-21T12:58:32;99048.91;;;30.45;31.03
73338;BME280;61575;49.908;35.556;2022-08-21T13:01:37;99041.13;;;30.47;31.57
73338;BME280;61575;49.908;35.556;2022-08-21T13:04:42;99047.84;;;30.27;31.16
73338;BME280;61575;49.908;35.556;2022-08-21T13:07:45;99044.06;;;30.23;31.07
73338;BME280;61575;49.908;35.556;2022-08-21T13:10:49;99057.97;;;30.18;31.20
73338;BME280;61575;49.908;35.556;2022-08-21T13:13:58;99057.88;;;30.23;31.60
73338;BME280;61575;49.908;35.556;2022-08-21T13:17:05;99048.94;;;30.12;31.51
73338;BME280;61575;49.908;35.556;2022-08-21T13:20:19;99052.69;;;30.03;31.62
73338;BME280;61575;49.908;35.556;2022-08-21T13:23:25;99044.53;;;29.92;31.38
73338;BME280;61575;49.908;35.556;2022-08-21T13:27:02;99050.59;;;29.94;31.75
73338;BME280;61575;49.908;35.556;2022-08-21T13:30:00;99043.75;;;29.73;29.68
73338;BME280;61575;49.908;35.556;2022-08-21T13:33:03;99050.38;;;29.72;29.71
73338;BME280;61575;49.908;35.556;2022-08-21T13:36:24;99059.44;;;29.59;28.40
73338;BME280;61575;49.908;35.556;2022-08-21T13:39:28;99070.47;;;29.59;28.10
73338;BME280;61575;49.908;35.556;2022-08-21T13:42:30;99085.13;;;29.36;27.66
73338;BME280;61575;49.908;35.556;2022-08-21T13:45:32;99066.50;;;29.04;27.54
73338;BME280;61575;49.908;35.556;2022-08-21T13:48:34;99073.13;;;29.02;27.31
73338;BME280;61575;49.908;35.556;2022-08-21T13:51:37;99073.56;;;28.91;27.52
73338;BME280;61575;49.908;35.556;2022-08-21T13:54:40;99074.31;;;28.96;27.54
73338;BME280;61575;49.908;35.556;2022-08-21T13:57:43;99073.81;;;29.13;27.52
73338;BME280;61575;49.908;35.556;2022-08-21T14:00:50;99079.84;;;29.39;27.38
73338;BME280;61575;49.908;35.556;2022-08-21T14:03:54;99077.91;;;29.40;26.10
73338;BME280;61575;49.908;35.556;2022-08-21T14:06:59;99077.91;;;29.40;26.03
73338;BME280;61575;49.908;35.556;2022-08-21T14:10:03;99077.84;;;29.45;26.47
73338;BME280;61575;49.908;35.556;2022-08-21T14:13:05;99075.66;;;29.42;26.37
73338;BME280;61575;49.908;35.556;2022-08-21T14:16:20;99084.44;;;29.49;25.92
73338;BME280;61575;49.908;35.556;2022-08-21T14:25:36;99067.63;;;29.45;26.06
73338;BME280;61575;49.908;35.556;2022-08-21T14:28:44;99052.75;;;29.41;25.57
73338;BME280;61575;49.908;35.556;2022-08-21T14:31:54;99062.22;;;29.35;25.64
73338;BME280;61575;49.908;35.556;2022-08-21T14:34:56;99053.84;;;29.21;25.31
73338;BME280;61575;49.908;35.556;2022-08-21T14:37:59;99054.38;;;29.23;25.80
73338;BME280;61575;49.908;35.556;2022-08-21T14:41:11;99058.25;;;29.22;26.22
73338;BME280;61575;49.908;35.556;2022-08-21T14:44:15;99058.81;;;29.00;25.77
73338;BME280;61575;49.908;35.556;2022-08-21T14:47:18;99064.88;;;28.74;25.40
73338;BME280;61575;49.908;35.556;2022-08-21T14:50:20;99066.56;;;28.46;25.60
73338;BME280;61575;49.908;35.556;2022-08-21T14:53:28;99060.28;;;28.40;26.26
73338;BME280;61575;49.908;35.556;2022-08-21T14:56:30;99070.63;;;28.19;26.02
73338;BME280;61575;49.908;35.556;2022-08-21T14:59:34;99069.28;;;28.17;26.73
73338;BME280;61575;49.908;35.556;2022-08-21T15:02:36;99063.22;;;28.15;27.00
73338;BME280;61575;49.908;35.556;2022-08-21T15:05:39;99067.19;;;28.03;27.07
73338;BME280;61575;49.908;35.556;2022-08-21T15:08:40;99069.94;;;28.03;27.10
73338;BME280;61575;49.908;35.556;2022-08-21T15:11:43;99068.91;;;27.94;26.85
73338;BME280;61575;49.908;35.556;2022-08-21T15:14:48;99064.25;;;27.90;26.90
73338;BME280;61575;49.908;35.556;2022-08-21T15:17:50;99063.81;;;27.78;26.96
73338;BME280;61575;49.908;35.556;2022-08-21T15:20:52;99058.66;;;27.66;26.77
73338;BME280;61575;49.908;35.556;2022-08-21T15:23:54;99065.56;;;27.63;27.51
73338;BME280;61575;49.908;35.556;2022-08-21T15:26:57;99064.19;;;27.56;27.42
73338;BME280;61575;49.908;35.556;2022-08-21T15:30:03;99067.53;;;27.53;28.15
73338;BME280;61575;49.908;35.556;2022-08-21T15:33:06;99055.50;;;27.38;27.79
73338;BME280;61575;49.908;35.556;2022-08-21T15:36:08;99056.63;;;27.32;27.97
73338;BME280;61575;49.908;35.556;2022-08-21T15:39:10;99064.38;;;27.20;28.05
73338;BME280;61575;49.908;35.556;2022-08-21T15:42:11;99064.72;;;27.08;28.91
73338;BME280;61575;49.908;35.556;2022-08-21T15:45:14;99061.72;;;27.05;28.79
73338;BME280;61575;49.908;35.556;2022-08-21T15:48:15;99057.88;;;26.91;28.95
73338;BME280;61575;49.908;35.556;2022-08-21T15:51:18;99052.41;;;26.86;29.51
73338;BME280;61575;49.908;35.556;2022-08-21T15:54:20;99056.28;;;26.74;29.32
73338;BME280;61575;49.908;35.556;2022-08-21T15:57:23;99051.34;;;26.66;29.83
73338;BME280;61575;49.908;35.556;2022-08-21T16:00:25;99046.69;;;26.62;29.98
73338;BME280;61575;49.908;35.556;2022-08-21T16:03:27;99043.13;;;26.56;30.44
73338;BME280;61575;49.908;35.556;2022-08-21T16:06:29;99038.50;;;26.46;30.68
73338;BME280;61575;49.908;35.556;2022-08-21T16:09:52;99034.38;;;26.34;30.99
73338;BME280;61575;49.908;35.556;2022-08-21T16:12:55;99051.69;;;26.24;31.13
73338;BME280;61575;49.908;35.556;2022-08-21T16:16:00;99050.03;;;26.13;31.41
73338;BME280;61575;49.908;35.556;2022-08-21T16:19:02;99043.22;;;26.00;31.64
73338;BME280;61575;49.908;35.556;2022-08-21T16:22:04;99041.56;;;25.89;32.00
73338;BME280;61575;49.908;35.556;2022-08-21T16:25:06;99043.22;;;25.80;32.30
73338;BME280;61575;49.908;35.556;2022-08-21T16:28:10;99044.03;;;25.75;34.46
73338;BME280;61575;49.908;35.556;2022-08-21T16:31:14;99039.38;;;25.96;35.11
73338;BME280;61575;49.908;35.556;2022-08-21T16:34:17;99046.47;;;26.18;35.66
73338;BME280;61575;49.908;35.556;2022-08-21T16:37:22;99051.69;;;26.29;35.50
73338;BME280;61575;49.908;35.556;2022-08-21T16:40:25;99048.66;;;26.31;33.93
73338;BME280;61575;49.908;35.556;2022-08-21T16:43:29;99053.63;;;26.39;34.43
73338;BME280;61575;49.908;35.556;2022-08-21T16:46:33;99047.31;;;26.38;34.62
73338;BME280;61575;49.908;35.556;2022-08-21T16:49:35;99042.63;;;26.39;33.23
73338;BME280;61575;49.908;35.556;2022-08-21T16:52:37;99042.09;;;26.32;33.11
73338;BME280;61575;49.908;35.556;2022-08-21T16:55:39;99056.91;;;26.26;32.75
73338;BME280;61575;49.908;35.556;2022-08-21T16:58:43;99052.25;;;26.16;32.70